Time;durP1;ratioP1;P1;durP2;ratioP2;P2;SDS_P1;SDS_P2;PMS_P1;PMS_P2;Temp;Humidity;BMP_temperature;BMP_pressure;BME280_temperature;BME280_humidity;BME280_pressure;Samples;Min_cycle;Max_cycle;Signal;HPM_P1;HPM_P2
2023/07/04 00:01:11;;;;;;;2.88;1.00;;;;;;;14.94;71.15;100884.44;7391969;19;20014;-54
2023/07/04 00:03:40;;;;;;;3.47;1.00;;;;;;;14.93;71.28;100889.94;7389907;19;20090;-54
2023/07/04 00:06:10;;;;;;;3.70;1.20;;;;;;;14.86;71.55;100884.31;7390423;19;20019;-54
2023/07/04 00:08:37;;;;;;;3.60;1.02;;;;;;;14.95;71.54;100874.63;7391300;19;20077;-53
2023/07/04 00:11:06;;;;;;;2.40;0.98;;;;;;;14.91;72.12;100870.56;7389966;19;20025;-55
2023/07/04 00:13:35;;;;;;;3.33;1.00;;;;;;;15.08;71.87;100872.56;7389395;19;20033;-54
2023/07/04 00:16:06;;;;;;;5.05;0.98;;;;;;;15.09;71.56;100876.88;7390396;19;20456;-55
2023/07/04 00:18:36;;;;;;;2.53;1.00;;;;;;;15.13;71.50;100880.13;7390433;19;20019;-56
2023/07/04 00:21:07;;;;;;;3.83;1.20;;;;;;;15.08;71.83;100888.56;7391023;19;20010;-56
2023/07/04 00:23:35;;;;;;;2.03;0.80;;;;;;;15.02;72.41;100889.09;7387256;19;20086;-56
2023/07/04 00:26:06;;;;;;;4.03;1.10;;;;;;;15.13;72.13;100883.63;7390523;19;20089;-52
2023/07/04 00:28:38;;;;;;;4.95;1.38;;;;;;;15.15;72.17;100884.34;7390732;19;20035;-57
2023/07/04 00:31:07;;;;;;;5.03;1.30;;;;;;;15.10;72.54;100882.06;7390416;19;20024;-56
2023/07/04 00:33:35;;;;;;;3.30;1.15;;;;;;;15.12;72.83;100884.63;7387530;19;20030;-56
2023/07/04 00:36:10;;;;;;;4.93;1.27;;;;;;;15.23;72.71;100889.00;7389992;19;20015;-57
2023/07/04 00:38:40;;;;;;;5.65;1.30;;;;;;;15.04;73.43;100887.16;7389475;19;20018;-55
2023/07/04 00:41:13;;;;;;;3.33;1.17;;;;;;;15.09;73.22;100885.72;7390665;19;20052;-56
2023/07/04 00:44:01;;;;;;;4.95;1.20;;;;;;;15.06;73.66;100894.00;7388792;19;20098;-57
2023/07/04 00:46:39;;;;;;;4.78;1.45;;;;;;;15.11;73.67;100885.63;7390061;19;20023;-55
2023/07/04 00:49:17;;;;;;;5.25;1.48;;;;;;;15.21;73.56;100886.44;7392556;19;20029;-57
2023/07/04 00:51:50;;;;;;;4.22;1.30;;;;;;;15.15;74.02;100889.69;7390226;19;20097;-57
2023/07/04 00:54:20;;;;;;;6.18;1.30;;;;;;;15.21;73.98;100883.78;7390285;19;20030;-57
2023/07/04 00:56:47;;;;;;;5.03;1.33;;;;;;;15.22;74.10;100889.94;7389153;19;20014;-57
2023/07/04 00:59:14;;;;;;;4.57;1.38;;;;;;;15.15;74.33;100892.34;7388400;19;20018;-57
2023/07/04 01:01:42;;;;;;;7.53;1.60;;;;;;;15.11;74.36;100890.94;7390192;19;20022;-57
2023/07/04 01:04:09;;;;;;;5.28;1.40;;;;;;;15.09;74.32;100901.75;7390098;19;20659;-58
2023/07/04 01:07:16;;;;;;;6.78;1.38;;;;;;;15.15;74.61;100888.81;7387589;19;20029;-59
2023/07/04 01:09:52;;;;;;;5.82;1.35;;;;;;;15.13;74.81;100896.13;7389501;19;20019;-59
2023/07/04 01:12:19;;;;;;;5.63;1.55;;;;;;;15.16;74.86;100896.69;7389932;19;20081;-58
2023/07/04 01:14:48;;;;;;;6.13;1.38;;;;;;;15.21;74.26;100894.44;7388606;19;20022;-54
2023/07/04 01:17:15;;;;;;;5.22;1.60;;;;;;;15.15;74.77;100903.03;7389071;19;20029;-56
2023/07/04 01:19:42;;;;;;;4.28;1.30;;;;;;;15.14;74.90;100911.97;7387874;19;20483;-55
2023/07/04 01:22:29;;;;;;;5.85;1.60;;;;;;;15.12;75.15;100903.28;7388628;19;20035;-54
2023/07/04 01:25:23;;;;;;;4.57;1.50;;;;;;;15.16;75.40;100903.88;7388087;19;20018;-56
2023/07/04 01:27:59;;;;;;;5.10;1.70;;;;;;;15.04;75.82;100905.81;7389643;19;20059;-56
2023/07/04 01:30:29;;;;;;;5.63;1.90;;;;;;;15.17;75.64;100903.72;7389089;19;20021;-54
2023/07/04 01:32:59;;;;;;;8.00;2.13;;;;;;;15.24;75.38;100901.34;7387452;19;20028;-57
2023/07/04 01:35:27;;;;;;;5.95;2.00;;;;;;;15.26;75.31;100900.22;7388331;19;20245;-54
2023/07/04 01:37:55;;;;;;;9.48;2.50;;;;;;;15.29;75.52;100904.41;7387765;19;20015;-57
2023/07/04 01:40:23;;;;;;;7.75;2.25;;;;;;;15.29;75.83;100909.75;7388575;19;20086;-56
2023/07/04 01:42:51;;;;;;;7.55;2.58;;;;;;;15.28;75.78;100908.06;7390671;19;20025;-58
2023/07/04 01:45:19;;;;;;;7.50;2.65;;;;;;;15.26;76.20;100910.03;7395636;19;20047;-59
2023/07/04 01:47:47;;;;;;;6.75;2.28;;;;;;;15.23;76.45;100902.31;7395836;19;20023;-58
2023/07/04 01:50:15;;;;;;;6.28;2.20;;;;;;;15.24;76.39;100909.34;7399575;19;20019;-58
2023/07/04 01:52:42;;;;;;;11.63;2.45;;;;;;;15.23;76.47;100910.34;7394674;19;20548;-58
2023/07/04 01:55:11;;;;;;;6.15;2.38;;;;;;;15.30;76.11;100909.63;7395018;19;20017;-51
2023/07/04 01:57:39;;;;;;;11.43;2.38;;;;;;;15.28;76.34;100911.59;7395445;19;20089;-54
2023/07/04 02:00:09;;;;;;;6.93;2.50;;;;;;;15.29;76.44;100913.25;7392750;19;20018;-55
2023/07/04 02:02:37;;;;;;;8.70;2.40;;;;;;;15.27;76.43;100911.72;7394312;19;20086;-58
2023/07/04 02:05:06;;;;;;;7.55;2.60;;;;;;;15.29;76.32;100915.94;7393119;19;20025;-56
2023/07/04 02:07:34;;;;;;;9.02;2.47;;;;;;;15.29;76.64;100915.09;7395659;19;20014;-55
2023/07/04 02:10:01;;;;;;;8.98;2.28;;;;;;;15.34;76.46;100920.88;7394935;19;20082;-52
2023/07/04 02:12:28;;;;;;;6.70;2.13;;;;;;;15.29;76.74;100923.09;7393609;19;20025;-49
2023/07/04 02:14:55;;;;;;;8.32;2.63;;;;;;;15.30;76.68;100919.44;7393934;19;20014;-50
2023/07/04 02:17:23;;;;;;;9.23;2.35;;;;;;;15.38;76.47;100916.06;7394447;19;20020;-55
2023/07/04 02:19:50;;;;;;;6.75;2.50;;;;;;;15.33;76.77;100921.84;7393297;19;20037;-53
2023/07/04 02:22:17;;;;;;;8.77;2.55;;;;;;;15.27;76.84;100930.41;7391913;19;20432;-51
2023/07/04 02:24:45;;;;;;;9.98;2.40;;;;;;;15.17;77.35;100922.38;7393805;19;20014;-55
2023/07/04 02:27:12;;;;;;;10.02;2.60;;;;;;;15.22;77.16;100929.97;7394861;19;20026;-53
2023/07/04 02:29:39;;;;;;;9.93;2.80;;;;;;;15.20;77.27;100934.63;7393966;19;20029;-53
2023/07/04 02:32:07;;;;;;;6.78;2.53;;;;;;;15.19;77.20;100932.94;7394081;19;20019;-55
2023/07/04 02:34:34;;;;;;;9.43;2.63;;;;;;;15.17;77.29;100937.56;7393885;19;20019;-52
2023/07/04 02:37:01;;;;;;;10.27;3.67;;;;;;;15.16;77.33;100935.88;7394199;19;20018;-56
2023/07/04 02:39:30;;;;;;;12.13;2.90;;;;;;;15.21;77.05;100934.47;7392696;19;20015;-56
2023/07/04 02:41:57;;;;;;;10.93;2.92;;;;;;;15.17;77.13;100937.56;7393763;19;20124;-55
2023/07/04 02:44:24;;;;;;;9.90;2.72;;;;;;;15.15;77.13;100937.69;7393917;19;20029;-53
2023/07/04 02:46:51;;;;;;;11.02;2.83;;;;;;;15.17;77.14;100938.38;7393368;19;20024;-49
2023/07/04 02:49:19;;;;;;;11.05;2.75;;;;;;;15.18;77.19;100934.72;7396786;19;20087;-53
2023/07/04 02:51:46;;;;;;;8.95;2.80;;;;;;;15.19;77.18;100931.09;7393228;19;20090;-60
2023/07/04 02:54:15;;;;;;;9.90;3.00;;;;;;;15.10;77.38;100932.75;7391676;19;20504;-59
2023/07/04 02:56:43;;;;;;;8.93;2.70;;;;;;;15.18;77.19;100929.41;7391478;19;20098;-54
2023/07/04 02:59:11;;;;;;;10.38;2.90;;;;;;;15.08;77.56;100934.72;7392870;19;20046;-55
2023/07/04 03:01:38;;;;;;;8.80;2.67;;;;;;;15.16;77.38;100935.88;7392983;19;20093;-54
2023/07/04 03:04:05;;;;;;;7.13;2.95;;;;;;;15.18;77.19;100937.41;7393947;19;20182;-53
2023/07/04 03:06:32;;;;;;;6.13;2.42;;;;;;;15.18;77.13;100932.06;7392820;19;20026;-50
2023/07/04 03:09:00;;;;;;;10.38;3.25;;;;;;;15.24;76.90;100938.69;7391836;19;20018;-49
2023/07/04 03:11:27;;;;;;;10.95;2.80;;;;;;;15.25;76.75;100941.22;7392980;19;20380;-52
2023/07/04 03:13:55;;;;;;;9.13;3.28;;;;;;;15.18;77.13;100940.06;7391686;19;20035;-51
2023/07/04 03:16:23;;;;;;;13.23;3.45;;;;;;;15.16;77.34;100943.88;7391799;19;20021;-53
2023/07/04 03:18:50;;;;;;;9.82;3.05;;;;;;;15.08;77.67;100939.22;7392833;19;20019;-49
2023/07/04 03:21:18;;;;;;;10.05;3.20;;;;;;;15.19;77.01;100940.94;7392226;19;20129;-56
2023/07/04 03:23:45;;;;;;;12.23;3.25;;;;;;;15.10;77.41;100932.75;7389558;19;20018;-56
2023/07/04 03:26:12;;;;;;;10.30;3.35;;;;;;;15.10;77.57;100934.59;7391341;19;20018;-59
2023/07/04 03:28:39;;;;;;;11.20;3.63;;;;;;;15.11;77.50;100939.81;7392677;19;20014;-55
2023/07/04 03:31:07;;;;;;;9.43;3.20;;;;;;;15.13;77.65;100941.47;7392760;19;20022;-52
2023/07/04 03:33:34;;;;;;;10.73;2.80;;;;;;;15.17;77.36;100953.56;7390863;19;20026;-53
2023/07/04 03:36:01;;;;;;;11.23;2.97;;;;;;;15.20;77.08;100946.13;7391696;19;20025;-51
2023/07/04 03:38:29;;;;;;;9.18;3.10;;;;;;;15.21;77.37;100955.81;7392102;19;20026;-52
2023/07/04 03:40:56;;;;;;;10.60;3.60;;;;;;;15.21;77.37;100961.13;7390578;19;20438;-57
2023/07/04 03:43:24;;;;;;;12.95;3.45;;;;;;;15.20;77.14;100954.13;7390752;19;20078;-58
2023/07/04 03:45:52;;;;;;;10.02;3.47;;;;;;;15.22;77.05;100953.97;7389722;19;20077;-52
2023/07/04 03:48:20;;;;;;;8.80;3.10;;;;;;;15.20;76.98;100953.28;7392806;19;20077;-55
2023/07/04 03:50:48;;;;;;;9.02;3.22;;;;;;;15.18;77.00;100952.56;7390790;19;20034;-50
2023/07/04 03:53:15;;;;;;;9.43;3.60;;;;;;;15.14;77.10;100954.66;7387080;19;20100;-54
2023/07/04 03:55:42;;;;;;;10.18;3.75;;;;;;;15.08;77.22;100950.75;7391137;19;20023;-55
2023/07/04 03:58:09;;;;;;;10.35;3.78;;;;;;;15.15;77.09;100956.38;7392102;19;20527;-57
2023/07/04 04:00:37;;;;;;;11.35;3.30;;;;;;;15.25;76.64;100959.88;7390007;19;20022;-55
2023/07/04 04:03:04;;;;;;;8.30;3.35;;;;;;;15.22;76.76;100952.16;7390389;19;20082;-57
2023/07/04 04:05:32;;;;;;;15.80;3.72;;;;;;;15.25;76.77;100961.72;7388900;19;20011;-55
2023/07/04 04:07:59;;;;;;;11.10;3.35;;;;;;;15.27;76.58;100960.59;7391072;19;20092;-52
2023/07/04 04:10:26;;;;;;;9.48;3.65;;;;;;;15.21;76.78;100962.97;7391678;19;20114;-54
2023/07/04 04:12:53;;;;;;;10.68;3.53;;;;;;;15.21;76.80;100970.97;7390223;19;20033;-51
2023/07/04 04:15:21;;;;;;;9.15;3.05;;;;;;;15.15;77.02;100971.50;7389227;19;20019;-53
2023/07/04 04:17:48;;;;;;;9.93;3.47;;;;;;;15.19;76.71;100965.78;7391245;19;20025;-58
2023/07/04 04:20:16;;;;;;;9.57;3.63;;;;;;;15.22;76.50;100967.31;7389699;19;20014;-51
2023/07/04 04:22:45;;;;;;;12.23;3.83;;;;;;;15.23;76.67;100974.38;7389917;19;20019;-52
2023/07/04 04:25:14;;;;;;;10.85;3.72;;;;;;;15.30;76.14;100964.81;7387532;19;20025;-54
2023/07/04 04:27:43;;;;;;;9.52;3.22;;;;;;;15.30;76.58;100965.66;7389987;19;20029;-52
2023/07/04 04:30:11;;;;;;;12.85;3.50;;;;;;;15.25;76.44;100967.88;7386088;19;20345;-51
2023/07/04 04:32:39;;;;;;;8.85;3.20;;;;;;;15.27;76.31;100973.94;7389148;19;20033;-57
2023/07/04 04:35:09;;;;;;;10.82;3.42;;;;;;;15.23;76.99;100975.19;7389781;19;20029;-54
2023/07/04 04:37:37;;;;;;;8.57;3.40;;;;;;;15.30;76.43;100979.00;7390271;19;20047;-55
2023/07/04 04:40:06;;;;;;;8.43;3.13;;;;;;;15.24;76.45;100971.53;7389306;19;20024;-55
2023/07/04 04:42:34;;;;;;;8.48;3.45;;;;;;;15.30;76.39;100973.69;7389568;19;20047;-53
2023/07/04 04:45:03;;;;;;;8.93;3.60;;;;;;;15.26;76.28;100982.94;7389614;19;20039;-54
2023/07/04 04:47:33;;;;;;;10.63;3.50;;;;;;;15.37;75.99;100981.94;7389768;19;20029;-54
2023/07/04 04:50:02;;;;;;;13.07;2.97;;;;;;;15.34;76.09;100972.41;7394433;19;20018;-55
2023/07/04 04:52:33;;;;;;;9.52;3.05;;;;;;;15.33;76.24;100972.53;7387343;19;20029;-53
2023/07/04 04:55:02;;;;;;;9.63;3.38;;;;;;;15.35;76.37;100983.94;7389362;19;20022;-54
2023/07/04 04:57:29;;;;;;;9.55;3.40;;;;;;;15.41;76.09;100985.19;7389821;19;20054;-52
2023/07/04 04:59:59;;;;;;;9.25;3.47;;;;;;;15.39;75.95;100993.34;7388469;19;20039;-55
2023/07/04 05:02:30;;;;;;;10.50;3.78;;;;;;;15.42;75.85;100985.06;7389347;19;20300;-53
2023/07/04 05:04:59;;;;;;;9.13;3.10;;;;;;;15.46;76.03;100978.47;7389324;19;20022;-55
2023/07/04 05:07:27;;;;;;;11.15;3.83;;;;;;;15.44;75.92;100976.91;7389821;19;20675;-53
2023/07/04 05:09:58;;;;;;;10.48;3.58;;;;;;;15.42;76.23;100984.22;7389846;19;20039;-54
2023/07/04 05:12:25;;;;;;;10.82;3.67;;;;;;;15.36;76.32;100991.78;7387812;19;20019;-55
2023/07/04 05:14:53;;;;;;;9.25;3.17;;;;;;;15.36;76.23;100996.28;7388610;19;20019;-55
2023/07/04 05:17:20;;;;;;;8.75;3.10;;;;;;;15.40;76.08;100988.84;7389375;19;20093;-53
2023/07/04 05:19:48;;;;;;;12.27;3.42;;;;;;;15.45;75.99;100989.25;7396346;19;20010;-55
2023/07/04 05:22:19;;;;;;;9.93;3.60;;;;;;;15.49;76.07;100996.88;7396300;19;20035;-52
2023/07/04 05:24:47;;;;;;;11.40;3.40;;;;;;;15.55;76.01;100995.47;7395894;19;20556;-53
2023/07/04 05:27:15;;;;;;;10.95;3.63;;;;;;;15.63;75.93;100995.59;7396905;19;20031;-53
2023/07/04 05:29:47;;;;;;;11.10;4.00;;;;;;;15.76;75.70;100998.88;7396411;19;20018;-53
2023/07/04 05:32:15;;;;;;;10.48;3.90;;;;;;;15.82;75.18;100998.31;7395624;19;20018;-55
2023/07/04 05:34:47;;;;;;;7.80;3.35;;;;;;;15.97;75.04;101003.22;7395561;19;20043;-54
2023/07/04 05:37:17;;;;;;;10.73;3.80;;;;;;;15.96;74.66;101010.41;7395689;19;20010;-54
2023/07/04 05:39:45;;;;;;;11.15;4.03;;;;;;;15.86;75.19;100998.03;7395434;19;20029;-52
2023/07/04 05:42:12;;;;;;;8.30;3.53;;;;;;;15.82;75.38;101000.97;7395775;19;20019;-54
2023/07/04 05:44:39;;;;;;;11.85;3.78;;;;;;;15.93;74.88;101008.00;7395761;19;20023;-53
2023/07/04 05:47:07;;;;;;;9.20;3.50;;;;;;;16.01;74.68;101002.78;7395798;19;20077;-51
2023/07/04 05:49:34;;;;;;;10.23;3.80;;;;;;;16.07;74.45;101012.09;7399133;19;20015;-55
2023/07/04 05:52:02;;;;;;;10.00;3.85;;;;;;;16.08;74.23;101011.94;7394874;19;20030;-53
2023/07/04 05:54:29;;;;;;;11.70;3.88;;;;;;;16.08;74.11;101013.75;7395920;19;20023;-54
2023/07/04 05:56:56;;;;;;;10.75;3.58;;;;;;;16.07;73.76;101012.09;7394860;19;20582;-54
2023/07/04 05:59:23;;;;;;;9.85;3.33;;;;;;;16.08;73.72;101011.94;7394997;19;20018;-52
2023/07/04 06:01:51;;;;;;;8.20;3.40;;;;;;;16.09;73.43;101013.59;7394197;19;20015;-53
2023/07/04 06:04:19;;;;;;;9.63;3.20;;;;;;;16.02;73.80;101012.47;7395400;19;20588;-53
2023/07/04 06:06:52;;;;;;;11.50;3.55;;;;;;;16.02;73.81;101007.13;7394623;19;20092;-53
2023/07/04 06:09:20;;;;;;;11.18;3.35;;;;;;;16.08;73.84;101016.44;7395297;19;20114;-54
2023/07/04 06:11:48;;;;;;;10.32;3.42;;;;;;;16.17;73.46;101020.06;7393106;19;20039;-54
2023/07/04 06:14:18;;;;;;;11.75;3.03;;;;;;;16.21;73.17;101024.97;7395214;19;20092;-52
2023/07/04 06:16:45;;;;;;;9.07;2.88;;;;;;;16.33;72.70;101028.34;7394227;19;20380;-52
2023/07/04 06:19:12;;;;;;;10.68;3.20;;;;;;;16.41;72.37;101028.47;7394849;19;20026;-55
2023/07/04 06:21:40;;;;;;;10.93;3.00;;;;;;;16.53;71.59;101013.13;7392234;19;20035;-54
2023/07/04 06:24:13;;;;;;;12.68;2.92;;;;;;;16.53;71.86;101023.81;7393506;19;20026;-53
2023/07/04 06:26:41;;;;;;;6.90;2.83;;;;;;;16.54;71.28;101025.47;7392701;19;20025;-54
2023/07/04 06:29:08;;;;;;;9.25;2.97;;;;;;;16.51;70.98;101031.94;7393811;19;20022;-49
2023/07/04 06:31:36;;;;;;;9.05;3.08;;;;;;;16.57;70.83;101036.72;7394429;19;20046;-50
2023/07/04 06:34:07;;;;;;;11.52;2.80;;;;;;;16.66;70.58;101035.00;7394311;19;20018;-51
2023/07/04 06:36:34;;;;;;;8.02;2.80;;;;;;;16.68;71.10;101038.41;7393743;19;20074;-50
2023/07/04 06:39:02;;;;;;;10.10;2.97;;;;;;;16.62;70.78;101046.16;7394064;19;20026;-51
2023/07/04 06:41:29;;;;;;;8.60;2.78;;;;;;;16.68;71.04;101054.44;7391699;19;20030;-52
2023/07/04 06:43:57;;;;;;;9.35;2.58;;;;;;;16.68;70.59;101049.09;7391325;19;20412;-49
2023/07/04 06:46:24;;;;;;;8.48;3.13;;;;;;;16.71;70.84;101045.25;7393472;19;20026;-52
2023/07/04 06:48:52;;;;;;;7.95;2.80;;;;;;;16.67;70.94;101043.88;7395503;19;20014;-58
2023/07/04 06:51:20;;;;;;;8.23;2.67;;;;;;;16.70;70.98;101051.59;7392692;19;20074;-55
2023/07/04 06:53:48;;;;;;;10.93;2.58;;;;;;;16.76;70.72;101053.75;7391251;19;20038;-56
2023/07/04 06:56:20;;;;;;;10.32;2.40;;;;;;;16.80;70.25;101055.13;7392822;19;20010;-53
2023/07/04 06:58:52;;;;;;;10.75;2.70;;;;;;;16.87;70.17;101056.25;7393675;19;20006;-51
2023/07/04 07:01:23;;;;;;;7.32;2.30;;;;;;;16.94;69.84;101061.81;7391900;19;20014;-50
2023/07/04 07:03:50;;;;;;;10.32;2.72;;;;;;;16.89;69.90;101051.56;7390790;19;20368;-53
2023/07/04 07:06:19;;;;;;;10.20;2.33;;;;;;;17.10;69.82;101064.75;7392741;19;20042;-52
2023/07/04 07:08:47;;;;;;;6.88;2.45;;;;;;;17.15;68.63;101061.63;7393736;19;20018;-52
2023/07/04 07:11:17;;;;;;;9.35;2.53;;;;;;;17.15;68.56;101062.44;7393081;19;20022;-49
2023/07/04 07:13:46;;;;;;;8.18;2.33;;;;;;;17.14;68.56;101055.41;7392482;19;20043;-53
2023/07/04 07:16:17;;;;;;;6.05;2.00;;;;;;;17.14;68.85;101060.78;7392675;19;20480;-54
2023/07/04 07:18:46;;;;;;;7.38;2.17;;;;;;;17.18;68.97;101075.53;7391817;19;20025;-51
2023/07/04 07:21:18;;;;;;;4.60;1.80;;;;;;;17.18;68.82;101069.34;7391948;19;20026;-54
2023/07/04 07:23:47;;;;;;;7.70;2.25;;;;;;;17.17;68.42;101067.66;7391981;19;20138;-53
2023/07/04 07:26:22;;;;;;;7.93;2.30;;;;;;;17.21;68.35;101074.41;7392749;19;20039;-53
2023/07/04 07:28:50;;;;;;;9.35;2.17;;;;;;;17.32;67.92;101076.88;7392856;19;20385;-54
2023/07/04 07:31:20;;;;;;;7.15;1.90;;;;;;;17.45;67.83;101076.53;7393144;19;20014;-48
2023/07/04 07:33:53;;;;;;;6.97;1.85;;;;;;;17.67;66.57;101076.13;7390111;19;20097;-50
2023/07/04 07:36:30;;;;;;;7.43;2.00;;;;;;;17.92;66.29;101077.22;7390790;19;20022;-49
2023/07/04 07:38:59;;;;;;;7.38;1.73;;;;;;;18.06;65.55;101099.13;7392045;19;20237;-52
2023/07/04 07:41:30;;;;;;;4.72;1.88;;;;;;;18.02;64.68;101079.84;7388232;19;20508;-51
2023/07/04 07:43:57;;;;;;;4.85;1.70;;;;;;;17.95;64.89;101079.59;7390917;19;20022;-50
2023/07/04 07:46:25;;;;;;;4.80;1.48;;;;;;;17.90;64.78;101086.44;7390019;19;20484;-50
2023/07/04 07:48:52;;;;;;;6.57;1.70;;;;;;;17.87;64.38;101076.00;7394003;19;20022;-50
2023/07/04 07:51:19;;;;;;;5.50;1.70;;;;;;;17.85;64.97;101078.81;7390346;19;20324;-50
2023/07/04 07:53:49;;;;;;;5.93;1.40;;;;;;;17.91;64.30;101077.38;7390945;19;20018;-50
2023/07/04 07:56:18;;;;;;;3.78;1.52;;;;;;;17.83;64.03;101088.03;7391424;19;20345;-50
2023/07/04 07:58:46;;;;;;;7.45;1.70;;;;;;;17.72;64.56;101097.09;7392146;19;20044;-51
2023/07/04 08:01:28;;;;;;;8.13;1.60;;;;;;;17.74;64.17;101089.72;7390727;19;20019;-50
2023/07/04 08:03:57;;;;;;;4.93;1.60;;;;;;;17.79;63.99;101092.84;7390385;19;20487;-50
2023/07/04 08:06:42;;;;;;;2.90;1.30;;;;;;;17.87;63.37;101092.91;7391125;19;20019;-49
2023/07/04 08:09:15;;;;;;;6.43;1.40;;;;;;;17.89;62.85;101098.94;7391542;19;20036;-52
2023/07/04 08:11:45;;;;;;;;;;;;;;;17.75;60.99;101102.19;7392664;19;20018;-55
2023/07/04 08:14:13;;;;;;;5.10;1.35;;;;;;;18.03;61.22;101090.38;7389691;19;20392;-53
2023/07/04 08:16:44;;;;;;;5.50;1.30;;;;;;;18.33;60.65;101074.91;7390491;19;20490;-50
2023/07/04 08:19:15;;;;;;;5.70;1.50;;;;;;;18.40;60.26;101085.84;7391497;19;20026;-52
2023/07/04 08:21:43;;;;;;;5.00;1.40;;;;;;;18.38;59.01;101077.09;7389878;19;20015;-53
2023/07/04 08:24:12;;;;;;;6.20;2.20;;;;;;;18.39;59.30;101079.66;7389282;19;20019;-52
2023/07/04 08:26:41;;;;;;;6.47;1.80;;;;;;;18.41;59.08;101080.31;7389972;19;20022;-51
2023/07/04 08:29:09;;;;;;;5.05;1.38;;;;;;;18.42;58.64;101083.84;7390918;19;20025;-55
2023/07/04 08:31:36;;;;;;;5.25;1.38;;;;;;;18.40;57.54;101080.50;7390597;19;20032;-55
2023/07/04 08:34:09;;;;;;;3.70;1.23;;;;;;;18.52;56.99;101090.81;7389568;19;20018;-54
2023/07/04 08:36:39;;;;;;;4.03;1.17;;;;;;;18.58;56.39;101091.16;7390276;19;20115;-54
2023/07/04 08:39:09;;;;;;;3.90;1.15;;;;;;;18.46;56.41;101091.41;7389641;19;20255;-52
2023/07/04 08:41:56;;;;;;;5.70;1.70;;;;;;;18.24;56.41;101090.09;7388335;19;20018;-55
2023/07/04 08:44:32;;;;;;;5.07;1.35;;;;;;;18.06;57.18;101102.66;7388963;19;20026;-53
2023/07/04 08:47:00;;;;;;;5.20;1.02;;;;;;;18.29;56.30;101103.03;7387724;19;20499;-55
2023/07/04 08:49:34;;;;;;;6.00;1.38;;;;;;;18.41;55.43;101098.25;7393783;19;20039;-52
2023/07/04 08:52:10;;;;;;;5.13;1.30;;;;;;;18.54;54.84;101113.94;7390619;19;20036;-51
2023/07/04 08:54:38;;;;;;;3.22;0.90;;;;;;;18.66;54.98;101097.44;7398264;19;20046;-56
2023/07/04 08:57:39;;;;;;;5.50;1.38;;;;;;;18.89;53.91;101115.75;7397086;19;20522;-53
2023/07/04 09:00:14;;;;;;;6.15;1.02;;;;;;;18.97;53.62;101105.88;7398051;19;20029;-53
2023/07/04 09:03:03;;;;;;;3.55;1.00;;;;;;;18.93;53.44;101126.00;7397237;19;20102;-50
2023/07/04 09:05:50;;;;;;;4.60;1.20;;;;;;;18.82;53.69;101122.75;7397242;19;20068;-51
2023/07/04 09:08:39;;;;;;;4.88;1.13;;;;;;;18.88;53.11;101122.09;7398135;19;20022;-54
2023/07/04 09:11:09;;;;;;;5.93;1.23;;;;;;;18.78;53.40;101121.38;7397792;19;20035;-53
2023/07/04 09:13:41;;;;;;;4.13;0.98;;;;;;;18.70;53.50;101122.13;7395952;19;20082;-51
2023/07/04 09:16:35;;;;;;;5.45;1.13;;;;;;;18.81;52.18;101132.63;7395276;19;20014;-53
2023/07/04 09:19:05;;;;;;;5.82;1.20;;;;;;;18.91;52.77;101129.81;7396184;19;20018;-54
2023/07/04 09:21:33;;;;;;;5.68;1.20;;;;;;;18.91;52.86;101127.97;7395350;19;20495;-58
2023/07/04 09:24:04;;;;;;;4.10;1.17;;;;;;;18.80;52.88;101133.59;7394545;19;20078;-58
2023/07/04 09:26:45;;;;;;;4.35;1.13;;;;;;;18.92;52.91;101134.19;7396166;19;20070;-58
2023/07/04 09:29:16;;;;;;;4.95;1.42;;;;;;;18.98;53.09;101134.41;7395624;19;20022;-55
2023/07/04 09:31:46;;;;;;;4.75;1.30;;;;;;;19.11;53.33;101131.28;7397116;19;20018;-56
2023/07/04 09:34:32;;;;;;;5.95;1.30;;;;;;;19.36;51.83;101134.94;7392549;19;20483;-55
2023/07/04 09:37:08;;;;;;;8.20;1.40;;;;;;;19.30;52.80;101138.25;7395817;19;20027;-60
2023/07/04 09:39:46;;;;;;;6.93;1.27;;;;;;;19.31;50.93;101144.47;7397004;19;20014;-56
2023/07/04 09:42:18;;;;;;;4.47;1.30;;;;;;;19.25;51.23;101140.59;7394193;19;20054;-50
2023/07/04 09:45:09;;;;;;;4.18;1.10;;;;;;;19.28;50.45;101151.03;7394686;19;20504;-53
2023/07/04 09:47:44;;;;;;;6.22;1.33;;;;;;;19.40;49.54;101144.38;7394812;19;20084;-55
2023/07/04 09:50:23;;;;;;;4.13;1.10;;;;;;;19.40;48.18;101140.84;7399168;19;20357;-52
2023/07/04 09:53:07;;;;;;;7.30;1.40;;;;;;;19.33;48.37;101150.53;7394790;19;20018;-50
2023/07/04 09:55:37;;;;;;;4.57;1.10;;;;;;;19.37;48.32;101154.59;7395066;19;20011;-52
2023/07/04 09:58:19;;;;;;;4.07;1.30;;;;;;;19.47;47.57;101144.56;7395415;19;20018;-55
2023/07/04 10:01:14;;;;;;;5.65;1.05;;;;;;;19.56;46.74;101148.13;7395488;19;20487;-54
2023/07/04 10:03:44;;;;;;;4.22;1.45;;;;;;;19.53;47.66;101151.13;7392746;19;20017;-52
2023/07/04 10:06:33;;;;;;;4.07;1.30;;;;;;;19.65;45.83;101145.34;7395192;19;20039;-54
2023/07/04 10:09:05;;;;;;;3.80;1.25;;;;;;;19.54;46.78;101153.66;7395569;19;20086;-56
2023/07/04 10:11:45;;;;;;;5.63;1.10;;;;;;;19.48;47.16;101154.31;7396691;19;20031;-55
2023/07/04 10:14:14;;;;;;;6.53;1.30;;;;;;;19.60;47.09;101147.63;7395583;19;20086;-54
2023/07/04 10:16:47;;;;;;;3.70;1.35;;;;;;;19.62;47.04;101155.56;7397188;19;20637;-56
2023/07/04 10:19:18;;;;;;;6.32;1.35;;;;;;;19.65;47.22;101153.41;7397124;19;20094;-55
2023/07/04 10:21:50;;;;;;;6.00;1.85;;;;;;;19.66;47.98;101149.72;7396330;19;20019;-54
2023/07/04 10:24:20;;;;;;;3.72;1.20;;;;;;;19.71;47.03;101143.84;7395055;19;20023;-54
2023/07/04 10:26:56;;;;;;;4.75;1.33;;;;;;;19.63;46.48;101155.41;7396171;19;20025;-53
2023/07/04 10:29:31;;;;;;;7.82;1.50;;;;;;;19.57;46.18;101166.75;7396874;19;20010;-53
2023/07/04 10:32:03;;;;;;;5.20;1.48;;;;;;;19.65;46.54;101156.09;7397233;19;20039;-54
2023/07/04 10:34:34;;;;;;;5.07;1.45;;;;;;;19.72;47.02;101164.31;7394718;19;20022;-51
2023/07/04 10:37:02;;;;;;;5.85;1.48;;;;;;;19.53;46.88;101161.88;7393625;19;20019;-54
2023/07/04 10:39:32;;;;;;;5.65;1.45;;;;;;;19.51;46.97;101155.84;7396389;19;20048;-54
2023/07/04 10:42:38;;;;;;;7.80;1.70;;;;;;;19.51;46.29;101172.78;7393832;19;20015;-52
2023/07/04 10:45:06;;;;;;;4.28;1.30;;;;;;;19.30;47.25;101161.59;7395136;19;20015;-48
2023/07/04 10:47:37;;;;;;;5.80;1.45;;;;;;;19.19;47.98;101168.06;7392102;19;20022;-54
2023/07/04 10:50:11;;;;;;;6.97;1.52;;;;;;;19.07;48.35;101163.97;7398275;19;20396;-54
2023/07/04 10:52:46;;;;;;;7.15;1.42;;;;;;;18.99;48.82;101170.13;7393539;19;20014;-54
2023/07/04 10:55:23;;;;;;;6.03;1.40;;;;;;;18.94;48.55;101172.47;7392466;19;20046;-54
2023/07/04 10:57:59;;;;;;;4.95;1.30;;;;;;;18.90;48.87;101187.19;7393957;19;20538;-57
2023/07/04 11:00:39;;;;;;;6.05;1.48;;;;;;;18.83;48.56;101205.75;7394213;19;20032;-54
2023/07/04 11:03:27;;;;;;;5.80;1.55;;;;;;;18.63;47.64;101194.34;7391702;19;20022;-55
2023/07/04 11:05:56;;;;;;;5.93;1.30;;;;;;;18.45;49.07;101205.06;7392635;19;20437;-55
2023/07/04 11:08:32;;;;;;;3.50;1.15;;;;;;;18.39;48.58;101213.75;7393454;19;20039;-51
2023/07/04 11:11:09;;;;;;;5.47;1.15;;;;;;;18.24;49.14;101213.41;7393459;19;20026;-51
2023/07/04 11:13:48;;;;;;;6.93;1.20;;;;;;;18.09;50.06;101219.44;7392846;19;20017;-50
2023/07/04 11:16:17;;;;;;;4.90;1.10;;;;;;;17.96;50.69;101211.75;7389979;19;20031;-53
2023/07/04 11:19:15;;;;;;;5.47;1.33;;;;;;;18.05;50.49;101205.50;7393528;19;20028;-51
2023/07/04 11:22:02;;;;;;;5.35;1.08;;;;;;;17.98;50.97;101210.63;7391987;19;20046;-52
2023/07/04 11:24:34;;;;;;;5.28;1.30;;;;;;;17.91;50.92;101208.69;7391441;19;20361;-51
2023/07/04 11:27:11;;;;;;;5.65;1.60;;;;;;;17.83;51.67;101219.31;7391993;19;20047;-53
2023/07/04 11:29:53;;;;;;;3.35;1.20;;;;;;;18.01;52.30;101204.13;7391495;19;20553;-50
2023/07/04 11:32:38;;;;;;;6.00;1.35;;;;;;;18.15;51.81;101206.25;7392358;19;20014;-53
2023/07/04 11:35:06;;;;;;;3.92;1.15;;;;;;;18.48;52.11;101191.34;7392309;19;20018;-51
2023/07/04 11:37:41;;;;;;;4.82;1.60;;;;;;;18.71;52.35;101202.47;7393201;19;20313;-54
2023/07/04 11:40:41;;;;;;;6.78;1.60;;;;;;;18.85;51.35;101213.66;7392320;19;20020;-53
2023/07/04 11:43:24;;;;;;;4.60;1.73;;;;;;;18.79;51.44;101209.75;7389381;19;20018;-55